sensor_id;sensor_type;location;lat;lon;timestamp;P1;durP1;ratioP1;P2;durP2;ratioP2
78732;SDS011;68056;52.530;5.454;2023-07-13T00:00:28;4.68;;;1.10;;
78732;SDS011;68056;52.530;5.454;2023-07-13T00:02:55;3.20;;;1.02;;
78732;SDS011;68056;52.530;5.454;2023-07-13T00:05:21;4.15;;;1.20;;
78732;SDS011;68056;52.530;5.454;2023-07-13T00:07:48;3.00;;;1.10;;
78732;SDS011;68056;52.530;5.454;2023-07-13T00:10:17;6.55;;;1.73;;
78732;SDS011;68056;52.530;5.454;2023-07-13T00:12:44;7.10;;;1.48;;
78732;SDS011;68056;52.530;5.454;2023-07-13T00:15:17;5.32;;;1.20;;
78732;SDS011;68056;52.530;5.454;2023-07-13T00:17:57;4.32;;;1.13;;
78732;SDS011;68056;52.530;5.454;2023-07-13T00:20:23;4.30;;;1.50;;
78732;SDS011;68056;52.530;5.454;2023-07-13T00:22:50;8.85;;;1.55;;
78732;SDS011;68056;52.530;5.454;2023-07-13T00:25:18;3.72;;;1.23;;
78732;SDS011;68056;52.530;5.454;2023-07-13T00:27:49;6.40;;;1.77;;
78732;SDS011;68056;52.530;5.454;2023-07-13T00:30:16;8.60;;;2.33;;
78732;SDS011;68056;52.530;5.454;2023-07-13T00:32:42;7.60;;;1.85;;
78732;SDS011;68056;52.530;5.454;2023-07-13T00:35:08;6.50;;;1.80;;
78732;SDS011;68056;52.530;5.454;2023-07-13T00:37:34;7.70;;;1.90;;
78732;SDS011;68056;52.530;5.454;2023-07-13T00:40:01;4.40;;;1.20;;
78732;SDS011;68056;52.530;5.454;2023-07-13T00:42:30;7.07;;;1.77;;
78732;SDS011;68056;52.530;5.454;2023-07-13T00:45:04;8.10;;;1.65;;
78732;SDS011;68056;52.530;5.454;2023-07-13T00:47:36;6.57;;;2.30;;
78732;SDS011;68056;52.530;5.454;2023-07-13T00:50:01;4.65;;;1.77;;
78732;SDS011;68056;52.530;5.454;2023-07-13T00:52:28;8.30;;;2.10;;
78732;SDS011;68056;52.530;5.454;2023-07-13T00:54:54;6.10;;;1.88;;
78732;SDS011;68056;52.530;5.454;2023-07-13T00:57:21;6.38;;;1.48;;
78732;SDS011;68056;52.530;5.454;2023-07-13T00:59:49;10.82;;;1.90;;
78732;SDS011;68056;52.530;5.454;2023-07-13T01:02:19;5.30;;;2.05;;
78732;SDS011;68056;52.530;5.454;2023-07-13T01:07:12;6.07;;;2.20;;
78732;SDS011;68056;52.530;5.454;2023-07-13T01:09:38;8.65;;;1.83;;
78732;SDS011;68056;52.530;5.454;2023-07-13T01:12:04;8.75;;;1.60;;
78732;SDS011;68056;52.530;5.454;2023-07-13T01:14:30;5.32;;;1.63;;
78732;SDS011;68056;52.530;5.454;2023-07-13T01:16:56;9.77;;;2.30;;
78732;SDS011;68056;52.530;5.454;2023-07-13T01:22:11;5.45;;;1.63;;
78732;SDS011;68056;52.530;5.454;2023-07-13T01:24:39;6.00;;;1.75;;
78732;SDS011;68056;52.530;5.454;2023-07-13T01:27:08;13.25;;;2.45;;
78732;SDS011;68056;52.530;5.454;2023-07-13T01:29:36;8.13;;;1.83;;
78732;SDS011;68056;52.530;5.454;2023-07-13T01:32:11;7.03;;;1.67;;
78732;SDS011;68056;52.530;5.454;2023-07-13T01:34:39;8.75;;;2.03;;
78732;SDS011;68056;52.530;5.454;2023-07-13T01:37:07;10.13;;;2.10;;
78732;SDS011;68056;52.530;5.454;2023-07-13T01:39:33;11.48;;;2.22;;
78732;SDS011;68056;52.530;5.454;2023-07-13T01:41:59;8.85;;;2.35;;
78732;SDS011;68056;52.530;5.454;2023-07-13T01:44:25;10.00;;;2.67;;
78732;SDS011;68056;52.530;5.454;2023-07-13T01:46:51;9.65;;;1.83;;
78732;SDS011;68056;52.530;5.454;2023-07-13T01:49:16;9.85;;;2.38;;
78732;SDS011;68056;52.530;5.454;2023-07-13T01:51:42;8.63;;;2.30;;
78732;SDS011;68056;52.530;5.454;2023-07-13T01:54:08;6.00;;;2.00;;
78732;SDS011;68056;52.530;5.454;2023-07-13T01:56:33;8.65;;;2.25;;
78732;SDS011;68056;52.530;5.454;2023-07-13T01:58:59;11.50;;;3.17;;
78732;SDS011;68056;52.530;5.454;2023-07-13T02:01:25;11.73;;;3.00;;
78732;SDS011;68056;52.530;5.454;2023-07-13T02:03:50;5.90;;;2.17;;
78732;SDS011;68056;52.530;5.454;2023-07-13T02:06:16;9.68;;;2.40;;
78732;SDS011;68056;52.530;5.454;2023-07-13T02:08:42;7.05;;;2.30;;
78732;SDS011;68056;52.530;5.454;2023-07-13T02:11:08;11.48;;;2.88;;
78732;SDS011;68056;52.530;5.454;2023-07-13T02:13:34;12.35;;;2.55;;
78732;SDS011;68056;52.530;5.454;2023-07-13T02:15:59;10.57;;;2.80;;
78732;SDS011;68056;52.530;5.454;2023-07-13T02:18:26;9.77;;;2.25;;
78732;SDS011;68056;52.530;5.454;2023-07-13T02:20:52;12.38;;;3.25;;
78732;SDS011;68056;52.530;5.454;2023-07-13T02:23:18;9.25;;;2.78;;
78732;SDS011;68056;52.530;5.454;2023-07-13T02:25:44;7.93;;;2.40;;
78732;SDS011;68056;52.530;5.454;2023-07-13T02:28:10;11.52;;;3.15;;
78732;SDS011;68056;52.530;5.454;2023-07-13T02:30:36;9.20;;;2.33;;
78732;SDS011;68056;52.530;5.454;2023-07-13T02:33:02;8.98;;;2.45;;
78732;SDS011;68056;52.530;5.454;2023-07-13T02:35:28;7.30;;;2.20;;
78732;SDS011;68056;52.530;5.454;2023-07-13T02:37:53;7.07;;;2.20;;
78732;SDS011;68056;52.530;5.454;2023-07-13T02:40:19;5.78;;;2.03;;
78732;SDS011;68056;52.530;5.454;2023-07-13T02:42:45;5.47;;;1.48;;
78732;SDS011;68056;52.530;5.454;2023-07-13T02:45:11;7.97;;;2.03;;
78732;SDS011;68056;52.530;5.454;2023-07-13T02:47:39;5.55;;;1.67;;
78732;SDS011;68056;52.530;5.454;2023-07-13T02:50:06;9.15;;;2.20;;
78732;SDS011;68056;52.530;5.454;2023-07-13T02:52:33;4.93;;;1.55;;
78732;SDS011;68056;52.530;5.454;2023-07-13T02:54:58;4.57;;;1.60;;
78732;SDS011;68056;52.530;5.454;2023-07-13T02:57:24;3.33;;;1.20;;
78732;SDS011;68056;52.530;5.454;2023-07-13T02:59:50;4.82;;;1.23;;
78732;SDS011;68056;52.530;5.454;2023-07-13T03:02:16;2.53;;;1.00;;
78732;SDS011;68056;52.530;5.454;2023-07-13T03:04:41;2.88;;;1.15;;
78732;SDS011;68056;52.530;5.454;2023-07-13T03:07:07;4.25;;;1.35;;
78732;SDS011;68056;52.530;5.454;2023-07-13T03:09:33;4.50;;;1.27;;
78732;SDS011;68056;52.530;5.454;2023-07-13T03:11:59;3.83;;;1.30;;
78732;SDS011;68056;52.530;5.454;2023-07-13T03:14:25;3.55;;;1.10;;
78732;SDS011;68056;52.530;5.454;2023-07-13T03:16:51;5.47;;;1.67;;
78732;SDS011;68056;52.530;5.454;2023-07-13T03:19:18;2.22;;;1.00;;
78732;SDS011;68056;52.530;5.454;2023-07-13T03:21:44;3.60;;;1.05;;
78732;SDS011;68056;52.530;5.454;2023-07-13T03:24:10;5.43;;;1.30;;
78732;SDS011;68056;52.530;5.454;2023-07-13T03:26:36;3.92;;;1.15;;
78732;SDS011;68056;52.530;5.454;2023-07-13T03:29:01;2.35;;;0.80;;
78732;SDS011;68056;52.530;5.454;2023-07-13T03:31:28;2.75;;;1.23;;
78732;SDS011;68056;52.530;5.454;2023-07-13T03:33:55;2.83;;;1.05;;
78732;SDS011;68056;52.530;5.454;2023-07-13T03:36:23;6.10;;;1.75;;
78732;SDS011;68056;52.530;5.454;2023-07-13T03:38:52;2.60;;;1.00;;
78732;SDS011;68056;52.530;5.454;2023-07-13T03:41:22;3.28;;;1.13;;
78732;SDS011;68056;52.530;5.454;2023-07-13T03:43:48;3.88;;;1.20;;
78732;SDS011;68056;52.530;5.454;2023-07-13T03:46:14;2.88;;;1.30;;
78732;SDS011;68056;52.530;5.454;2023-07-13T03:48:41;4.38;;;1.10;;
78732;SDS011;68056;52.530;5.454;2023-07-13T03:51:09;2.88;;;0.95;;
78732;SDS011;68056;52.530;5.454;2023-07-13T03:53:39;4.32;;;1.67;;
78732;SDS011;68056;52.530;5.454;2023-07-13T03:56:06;2.22;;;0.93;;
78732;SDS011;68056;52.530;5.454;2023-07-13T03:58:34;3.00;;;1.10;;
78732;SDS011;68056;52.530;5.454;2023-07-13T04:01:02;4.78;;;1.13;;
78732;SDS011;68056;52.530;5.454;2023-07-13T04:03:30;4.25;;;0.90;;
78732;SDS011;68056;52.530;5.454;2023-07-13T04:05:58;3.17;;;1.20;;
78732;SDS011;68056;52.530;5.454;2023-07-13T04:08:43;4.43;;;1.25;;
78732;SDS011;68056;52.530;5.454;2023-07-13T04:11:09;2.70;;;0.88;;
78732;SDS011;68056;52.530;5.454;2023-07-13T04:13:36;5.20;;;1.20;;
78732;SDS011;68056;52.530;5.454;2023-07-13T04:16:01;2.08;;;0.93;;
78732;SDS011;68056;52.530;5.454;2023-07-13T04:18:27;4.22;;;1.50;;
78732;SDS011;68056;52.530;5.454;2023-07-13T04:20:52;2.55;;;0.75;;
78732;SDS011;68056;52.530;5.454;2023-07-13T04:23:18;4.93;;;1.08;;
78732;SDS011;68056;52.530;5.454;2023-07-13T04:25:44;2.30;;;0.80;;
78732;SDS011;68056;52.530;5.454;2023-07-13T04:28:15;5.53;;;1.20;;
78732;SDS011;68056;52.530;5.454;2023-07-13T04:30:42;3.38;;;1.23;;
78732;SDS011;68056;52.530;5.454;2023-07-13T04:33:08;3.20;;;1.27;;
78732;SDS011;68056;52.530;5.454;2023-07-13T04:35:34;3.33;;;1.08;;
78732;SDS011;68056;52.530;5.454;2023-07-13T04:38:00;4.43;;;1.23;;
78732;SDS011;68056;52.530;5.454;2023-07-13T04:40:26;4.65;;;1.35;;
78732;SDS011;68056;52.530;5.454;2023-07-13T04:42:52;4.28;;;1.08;;
78732;SDS011;68056;52.530;5.454;2023-07-13T04:45:18;4.50;;;1.13;;
78732;SDS011;68056;52.530;5.454;2023-07-13T04:47:43;5.75;;;1.45;;
78732;SDS011;68056;52.530;5.454;2023-07-13T04:50:13;4.47;;;0.93;;
78732;SDS011;68056;52.530;5.454;2023-07-13T04:55:11;2.72;;;1.13;;
78732;SDS011;68056;52.530;5.454;2023-07-13T04:57:37;6.05;;;1.27;;
78732;SDS011;68056;52.530;5.454;2023-07-13T05:00:03;7.10;;;1.60;;
78732;SDS011;68056;52.530;5.454;2023-07-13T05:04:56;3.47;;;1.20;;
78732;SDS011;68056;52.530;5.454;2023-07-13T05:07:22;3.35;;;1.23;;
78732;SDS011;68056;52.530;5.454;2023-07-13T05:09:48;7.28;;;1.30;;
78732;SDS011;68056;52.530;5.454;2023-07-13T05:12:13;3.63;;;1.30;;
78732;SDS011;68056;52.530;5.454;2023-07-13T05:14:39;5.20;;;1.13;;
78732;SDS011;68056;52.530;5.454;2023-07-13T05:17:05;4.13;;;1.40;;
78732;SDS011;68056;52.530;5.454;2023-07-13T05:19:30;6.00;;;1.48;;
78732;SDS011;68056;52.530;5.454;2023-07-13T05:21:57;4.18;;;1.10;;
78732;SDS011;68056;52.530;5.454;2023-07-13T05:24:22;4.40;;;1.20;;
78732;SDS011;68056;52.530;5.454;2023-07-13T05:26:48;6.28;;;1.50;;
78732;SDS011;68056;52.530;5.454;2023-07-13T05:29:14;3.22;;;1.13;;
78732;SDS011;68056;52.530;5.454;2023-07-13T05:31:39;6.43;;;1.40;;
78732;SDS011;68056;52.530;5.454;2023-07-13T05:34:05;4.10;;;1.35;;
78732;SDS011;68056;52.530;5.454;2023-07-13T05:36:31;4.63;;;1.17;;
78732;SDS011;68056;52.530;5.454;2023-07-13T05:38:56;4.50;;;1.20;;
78732;SDS011;68056;52.530;5.454;2023-07-13T05:41:22;4.55;;;1.20;;
78732;SDS011;68056;52.530;5.454;2023-07-13T05:43:48;4.60;;;1.50;;
78732;SDS011;68056;52.530;5.454;2023-07-13T05:46:13;4.57;;;1.90;;
78732;SDS011;68056;52.530;5.454;2023-07-13T05:48:39;5.45;;;1.10;;
78732;SDS011;68056;52.530;5.454;2023-07-13T05:51:05;2.90;;;1.00;;
78732;SDS011;68056;52.530;5.454;2023-07-13T05:53:30;4.57;;;1.67;;
78732;SDS011;68056;52.530;5.454;2023-07-13T05:55:56;4.22;;;1.27;;
78732;SDS011;68056;52.530;5.454;2023-07-13T05:58:22;4.32;;;1.58;;
78732;SDS011;68056;52.530;5.454;2023-07-13T06:00:47;5.20;;;1.40;;
78732;SDS011;68056;52.530;5.454;2023-07-13T06:03:14;5.65;;;1.58;;
78732;SDS011;68056;52.530;5.454;2023-07-13T06:05:41;6.80;;;1.55;;
78732;SDS011;68056;52.530;5.454;2023-07-13T06:08:07;4.50;;;1.42;;
78732;SDS011;68056;52.530;5.454;2023-07-13T06:10:33;4.78;;;1.55;;
78732;SDS011;68056;52.530;5.454;2023-07-13T06:13:02;4.70;;;1.52;;
78732;SDS011;68056;52.530;5.454;2023-07-13T06:15:28;4.85;;;1.55;;
78732;SDS011;68056;52.530;5.454;2023-07-13T06:17:53;4.35;;;1.45;;
78732;SDS011;68056;52.530;5.454;2023-07-13T06:20:19;3.20;;;1.50;;
78732;SDS011;68056;52.530;5.454;2023-07-13T06:22:45;4.13;;;1.60;;
78732;SDS011;68056;52.530;5.454;2023-07-13T06:25:11;7.78;;;1.98;;
78732;SDS011;68056;52.530;5.454;2023-07-13T06:27:36;6.38;;;1.67;;
78732;SDS011;68056;52.530;5.454;2023-07-13T06:30:02;6.50;;;1.92;;
78732;SDS011;68056;52.530;5.454;2023-07-13T06:32:28;8.88;;;2.28;;
78732;SDS011;68056;52.530;5.454;2023-07-13T06:34:53;5.00;;;1.98;;
78732;SDS011;68056;52.530;5.454;2023-07-13T06:37:19;7.90;;;1.85;;
78732;SDS011;68056;52.530;5.454;2023-07-13T06:39:45;7.20;;;2.00;;
78732;SDS011;68056;52.530;5.454;2023-07-13T06:42:10;5.53;;;1.83;;
78732;SDS011;68056;52.530;5.454;2023-07-13T06:44:36;6.75;;;1.95;;
78732;SDS011;68056;52.530;5.454;2023-07-13T06:47:02;5.07;;;1.70;;
78732;SDS011;68056;52.530;5.454;2023-07-13T06:49:28;6.32;;;1.83;;
78732;SDS011;68056;52.530;5.454;2023-07-13T06:51:53;7.72;;;1.88;;
78732;SDS011;68056;52.530;5.454;2023-07-13T06:54:19;6.72;;;1.63;;
78732;SDS011;68056;52.530;5.454;2023-07-13T06:56:45;4.53;;;1.55;;
78732;SDS011;68056;52.530;5.454;2023-07-13T06:59:10;6.55;;;2.55;;
78732;SDS011;68056;52.530;5.454;2023-07-13T07:01:36;7.47;;;1.92;;
78732;SDS011;68056;52.530;5.454;2023-07-13T07:04:02;7.45;;;1.85;;
78732;SDS011;68056;52.530;5.454;2023-07-13T07:06:28;7.45;;;2.08;;
78732;SDS011;68056;52.530;5.454;2023-07-13T07:08:54;4.28;;;1.80;;
78732;SDS011;68056;52.530;5.454;2023-07-13T07:11:22;8.00;;;1.88;;
78732;SDS011;68056;52.530;5.454;2023-07-13T07:13:50;5.68;;;1.80;;
78732;SDS011;68056;52.530;5.454;2023-07-13T07:16:16;8.00;;;2.10;;
78732;SDS011;68056;52.530;5.454;2023-07-13T07:18:43;10.15;;;2.60;;
78732;SDS011;68056;52.530;5.454;2023-07-13T07:21:09;5.07;;;2.03;;
78732;SDS011;68056;52.530;5.454;2023-07-13T07:23:35;3.22;;;1.60;;
78732;SDS011;68056;52.530;5.454;2023-07-13T07:26:01;4.93;;;1.77;;
78732;SDS011;68056;52.530;5.454;2023-07-13T07:28:27;6.13;;;1.85;;
78732;SDS011;68056;52.530;5.454;2023-07-13T07:30:56;6.38;;;2.03;;
78732;SDS011;68056;52.530;5.454;2023-07-13T07:33:23;6.35;;;2.20;;
78732;SDS011;68056;52.530;5.454;2023-07-13T07:35:50;4.28;;;1.55;;
78732;SDS011;68056;52.530;5.454;2023-07-13T07:38:16;6.65;;;2.05;;
78732;SDS011;68056;52.530;5.454;2023-07-13T07:40:42;5.25;;;1.75;;
78732;SDS011;68056;52.530;5.454;2023-07-13T07:43:08;6.28;;;1.70;;
78732;SDS011;68056;52.530;5.454;2023-07-13T07:45:35;5.40;;;1.70;;
78732;SDS011;68056;52.530;5.454;2023-07-13T07:48:03;5.85;;;2.03;;
78732;SDS011;68056;52.530;5.454;2023-07-13T07:52:55;4.47;;;1.85;;
78732;SDS011;68056;52.530;5.454;2023-07-13T07:55:21;3.47;;;1.98;;
78732;SDS011;68056;52.530;5.454;2023-07-13T07:57:48;4.43;;;1.55;;
78732;SDS011;68056;52.530;5.454;2023-07-13T08:00:14;4.70;;;1.52;;
78732;SDS011;68056;52.530;5.454;2023-07-13T08:02:41;6.85;;;2.00;;
78732;SDS011;68056;52.530;5.454;2023-07-13T08:05:07;4.95;;;1.90;;
78732;SDS011;68056;52.530;5.454;2023-07-13T08:07:34;4.03;;;2.20;;
78732;SDS011;68056;52.530;5.454;2023-07-13T08:10:00;4.10;;;2.17;;
78732;SDS011;68056;52.530;5.454;2023-07-13T08:12:26;3.47;;;1.98;;
78732;SDS011;68056;52.530;5.454;2023-07-13T08:14:52;5.05;;;2.15;;
78732;SDS011;68056;52.530;5.454;2023-07-13T08:17:23;4.97;;;1.83;;
78732;SDS011;68056;52.530;5.454;2023-07-13T08:19:49;5.38;;;2.42;;
78732;SDS011;68056;52.530;5.454;2023-07-13T08:22:15;2.00;;;1.60;;
78732;SDS011;68056;52.530;5.454;2023-07-13T08:24:41;5.80;;;2.40;;
78732;SDS011;68056;52.530;5.454;2023-07-13T08:27:10;4.80;;;1.58;;
78732;SDS011;68056;52.530;5.454;2023-07-13T08:29:39;4.68;;;1.77;;
78732;SDS011;68056;52.530;5.454;2023-07-13T08:32:05;6.68;;;1.98;;
78732;SDS011;68056;52.530;5.454;2023-07-13T08:34:34;2.42;;;1.80;;
78732;SDS011;68056;52.530;5.454;2023-07-13T08:37:00;3.15;;;1.45;;
78732;SDS011;68056;52.530;5.454;2023-07-13T08:39:27;3.08;;;1.75;;
78732;SDS011;68056;52.530;5.454;2023-07-13T08:41:56;5.88;;;1.60;;
78732;SDS011;68056;52.530;5.454;2023-07-13T08:44:30;2.05;;;1.25;;
78732;SDS011;68056;52.530;5.454;2023-07-13T08:47:01;4.43;;;1.50;;
78732;SDS011;68056;52.530;5.454;2023-07-13T08:49:27;3.75;;;1.80;;
78732;SDS011;68056;52.530;5.454;2023-07-13T08:51:58;2.55;;;1.40;;
78732;SDS011;68056;52.530;5.454;2023-07-13T08:54:30;3.50;;;1.42;;
78732;SDS011;68056;52.530;5.454;2023-07-13T08:56:57;3.13;;;1.42;;
78732;SDS011;68056;52.530;5.454;2023-07-13T08:59:27;3.78;;;1.10;;
78732;SDS011;68056;52.530;5.454;2023-07-13T09:10:53;2.97;;;1.40;;
78732;SDS011;68056;52.530;5.454;2023-07-13T09:13:16;2.55;;;1.30;;
78732;SDS011;68056;52.530;5.454;2023-07-13T09:15:46;2.28;;;1.38;;
78732;SDS011;68056;52.530;5.454;2023-07-13T09:21:11;3.58;;;1.10;;
78732;SDS011;68056;52.530;5.454;2023-07-13T09:23:43;3.17;;;1.20;;
78732;SDS011;68056;52.530;5.454;2023-07-13T09:26:19;3.75;;;1.58;;
78732;SDS011;68056;52.530;5.454;2023-07-13T09:29:10;1.70;;;1.40;;
78732;SDS011;68056;52.530;5.454;2023-07-13T09:31:45;1.90;;;1.08;;
78732;SDS011;68056;52.530;5.454;2023-07-13T09:34:14;3.70;;;1.48;;
78732;SDS011;68056;52.530;5.454;2023-07-13T09:36:40;4.30;;;1.42;;
78732;SDS011;68056;52.530;5.454;2023-07-13T09:41:53;4.75;;;1.48;;
78732;SDS011;68056;52.530;5.454;2023-07-13T09:44:37;4.38;;;1.75;;
78732;SDS011;68056;52.530;5.454;2023-07-13T09:47:18;2.28;;;1.27;;
78732;SDS011;68056;52.530;5.454;2023-07-13T09:49:48;6.00;;;1.52;;
78732;SDS011;68056;52.530;5.454;2023-07-13T09:52:20;3.90;;;1.30;;
78732;SDS011;68056;52.530;5.454;2023-07-13T09:54:48;4.13;;;1.42;;
78732;SDS011;68056;52.530;5.454;2023-07-13T09:57:19;4.55;;;1.50;;
78732;SDS011;68056;52.530;5.454;2023-07-13T09:59:50;4.32;;;1.38;;
78732;SDS011;68056;52.530;5.454;2023-07-13T10:02:30;2.45;;;1.10;;
78732;SDS011;68056;52.530;5.454;2023-07-13T10:07:32;2.67;;;1.08;;
78732;SDS011;68056;52.530;5.454;2023-07-13T10:10:12;3.53;;;1.40;;
78732;SDS011;68056;52.530;5.454;2023-07-13T10:12:48;2.42;;;1.33;;
78732;SDS011;68056;52.530;5.454;2023-07-13T10:15:19;5.15;;;1.27;;
78732;SDS011;68056;52.530;5.454;2023-07-13T10:17:48;3.08;;;1.30;;
78732;SDS011;68056;52.530;5.454;2023-07-13T10:20:16;3.42;;;1.23;;
78732;SDS011;68056;52.530;5.454;2023-07-13T10:22:56;3.47;;;1.17;;
78732;SDS011;68056;52.530;5.454;2023-07-13T10:25:33;3.42;;;1.45;;
78732;SDS011;68056;52.530;5.454;2023-07-13T10:28:05;2.55;;;1.17;;
78732;SDS011;68056;52.530;5.454;2023-07-13T10:30:41;4.05;;;1.33;;
78732;SDS011;68056;52.530;5.454;2023-07-13T10:33:11;5.03;;;1.63;;
78732;SDS011;68056;52.530;5.454;2023-07-13T10:35:38;6.30;;;1.73;;
78732;SDS011;68056;52.530;5.454;2023-07-13T10:38:10;2.90;;;1.30;;
78732;SDS011;68056;52.530;5.454;2023-07-13T10:40:39;3.50;;;1.65;;
78732;SDS011;68056;52.530;5.454;2023-07-13T10:43:25;4.57;;;1.27;;
78732;SDS011;68056;52.530;5.454;2023-07-13T10:46:04;2.65;;;1.50;;
78732;SDS011;68056;52.530;5.454;2023-07-13T10:48:31;2.90;;;1.30;;
78732;SDS011;68056;52.530;5.454;2023-07-13T10:50:59;2.75;;;1.30;;
78732;SDS011;68056;52.530;5.454;2023-07-13T10:56:00;4.00;;;1.70;;
78732;SDS011;68056;52.530;5.454;2023-07-13T10:58:37;4.13;;;1.40;;
78732;SDS011;68056;52.530;5.454;2023-07-13T11:03:32;2.67;;;1.27;;
78732;SDS011;68056;52.530;5.454;2023-07-13T11:13:58;5.00;;;1.60;;
78732;SDS011;68056;52.530;5.454;2023-07-13T11:24:48;4.60;;;1.83;;
78732;SDS011;68056;52.530;5.454;2023-07-13T11:27:40;3.83;;;1.70;;
78732;SDS011;68056;52.530;5.454;2023-07-13T11:33:01;4.25;;;2.05;;
78732;SDS011;68056;52.530;5.454;2023-07-13T11:35:31;3.50;;;1.60;;
78732;SDS011;68056;52.530;5.454;2023-07-13T11:38:09;7.70;;;1.75;;
78732;SDS011;68056;52.530;5.454;2023-07-13T11:40:41;4.25;;;1.48;;
78732;SDS011;68056;52.530;5.454;2023-07-13T11:43:11;4.78;;;2.05;;
78732;SDS011;68056;52.530;5.454;2023-07-13T11:45:39;2.10;;;1.20;;
78732;SDS011;68056;52.530;5.454;2023-07-13T11:48:16;3.40;;;1.50;;
78732;SDS011;68056;52.530;5.454;2023-07-13T11:50:52;5.13;;;1.70;;
78732;SDS011;68056;52.530;5.454;2023-07-13T11:53:32;4.18;;;2.15;;
78732;SDS011;68056;52.530;5.454;2023-07-13T11:56:04;3.45;;;1.58;;
78732;SDS011;68056;52.530;5.454;2023-07-13T11:58:31;5.60;;;2.30;;
78732;SDS011;68056;52.530;5.454;2023-07-13T12:03:26;3.22;;;1.30;;
78732;SDS011;68056;52.530;5.454;2023-07-13T12:08:30;3.40;;;1.50;;
78732;SDS011;68056;52.530;5.454;2023-07-13T12:10:57;2.65;;;1.40;;
78732;SDS011;68056;52.530;5.454;2023-07-13T12:13:34;1.88;;;1.23;;
78732;SDS011;68056;52.530;5.454;2023-07-13T12:16:02;5.07;;;1.55;;
78732;SDS011;68056;52.530;5.454;2023-07-13T12:18:40;3.17;;;1.40;;
78732;SDS011;68056;52.530;5.454;2023-07-13T12:21:12;4.90;;;1.70;;
78732;SDS011;68056;52.530;5.454;2023-07-13T12:23:39;3.67;;;1.20;;
78732;SDS011;68056;52.530;5.454;2023-07-13T12:26:09;4.53;;;1.80;;
78732;SDS011;68056;52.530;5.454;2023-07-13T12:28:38;3.65;;;1.80;;
78732;SDS011;68056;52.530;5.454;2023-07-13T12:31:26;3.92;;;1.65;;
78732;SDS011;68056;52.530;5.454;2023-07-13T12:34:13;3.85;;;1.70;;
78732;SDS011;68056;52.530;5.454;2023-07-13T12:37:02;4.15;;;1.50;;
78732;SDS011;68056;52.530;5.454;2023-07-13T12:39:34;5.95;;;2.10;;
78732;SDS011;68056;52.530;5.454;2023-07-13T12:44:46;3.88;;;1.60;;
78732;SDS011;68056;52.530;5.454;2023-07-13T12:47:13;4.45;;;1.83;;
78732;SDS011;68056;52.530;5.454;2023-07-13T12:49:42;2.45;;;1.48;;
78732;SDS011;68056;52.530;5.454;2023-07-13T12:52:16;2.35;;;1.75;;
78732;SDS011;68056;52.530;5.454;2023-07-13T12:54:56;4.70;;;1.55;;
78732;SDS011;68056;52.530;5.454;2023-07-13T12:57:24;4.20;;;1.38;;
78732;SDS011;68056;52.530;5.454;2023-07-13T12:59:55;4.57;;;1.95;;
78732;SDS011;68056;52.530;5.454;2023-07-13T13:02:32;4.13;;;1.70;;
78732;SDS011;68056;52.530;5.454;2023-07-13T13:05:00;2.45;;;1.50;;
78732;SDS011;68056;52.530;5.454;2023-07-13T13:07:29;4.25;;;1.80;;
78732;SDS011;68056;52.530;5.454;2023-07-13T13:09:55;4.95;;;1.67;;
78732;SDS011;68056;52.530;5.454;2023-07-13T13:12:21;2.80;;;1.52;;
78732;SDS011;68056;52.530;5.454;2023-07-13T13:14:50;3.95;;;1.80;;
78732;SDS011;68056;52.530;5.454;2023-07-13T13:17:19;4.38;;;2.05;;
78732;SDS011;68056;52.530;5.454;2023-07-13T13:19:50;3.67;;;1.55;;
78732;SDS011;68056;52.530;5.454;2023-07-13T13:22:19;1.83;;;1.33;;
78732;SDS011;68056;52.530;5.454;2023-07-13T13:24:45;4.45;;;1.88;;
78732;SDS011;68056;52.530;5.454;2023-07-13T13:27:18;6.25;;;2.00;;
78732;SDS011;68056;52.530;5.454;2023-07-13T13:29:47;5.80;;;2.05;;
78732;SDS011;68056;52.530;5.454;2023-07-13T13:32:16;3.30;;;1.60;;
78732;SDS011;68056;52.530;5.454;2023-07-13T13:34:44;7.13;;;1.85;;
78732;SDS011;68056;52.530;5.454;2023-07-13T13:37:22;4.53;;;1.85;;
78732;SDS011;68056;52.530;5.454;2023-07-13T13:39:51;4.05;;;1.88;;
78732;SDS011;68056;52.530;5.454;2023-07-13T13:42:18;3.80;;;1.60;;
78732;SDS011;68056;52.530;5.454;2023-07-13T13:44:46;5.25;;;1.50;;
78732;SDS011;68056;52.530;5.454;2023-07-13T13:47:45;4.22;;;1.55;;
78732;SDS011;68056;52.530;5.454;2023-07-13T13:50:12;4.88;;;2.25;;
78732;SDS011;68056;52.530;5.454;2023-07-13T13:52:40;4.57;;;1.70;;
78732;SDS011;68056;52.530;5.454;2023-07-13T13:55:16;4.03;;;2.13;;
78732;SDS011;68056;52.530;5.454;2023-07-13T13:57:47;6.07;;;1.90;;
78732;SDS011;68056;52.530;5.454;2023-07-13T14:00:14;4.95;;;1.95;;
78732;SDS011;68056;52.530;5.454;2023-07-13T14:02:44;5.00;;;2.15;;
78732;SDS011;68056;52.530;5.454;2023-07-13T14:05:17;2.90;;;1.65;;
78732;SDS011;68056;52.530;5.454;2023-07-13T14:07:46;4.32;;;1.88;;
78732;SDS011;68056;52.530;5.454;2023-07-13T14:10:14;3.42;;;1.98;;
78732;SDS011;68056;52.530;5.454;2023-07-13T14:12:44;3.83;;;1.98;;
78732;SDS011;68056;52.530;5.454;2023-07-13T14:17:55;6.47;;;2.10;;
78732;SDS011;68056;52.530;5.454;2023-07-13T14:20:23;4.82;;;2.00;;
78732;SDS011;68056;52.530;5.454;2023-07-13T14:22:50;4.00;;;1.83;;
78732;SDS011;68056;52.530;5.454;2023-07-13T14:25:18;2.97;;;1.70;;
78732;SDS011;68056;52.530;5.454;2023-07-13T14:27:45;3.88;;;1.85;;
78732;SDS011;68056;52.530;5.454;2023-07-13T14:30:16;3.80;;;1.60;;
78732;SDS011;68056;52.530;5.454;2023-07-13T14:32:43;2.67;;;1.27;;
78732;SDS011;68056;52.530;5.454;2023-07-13T14:35:11;1.98;;;1.42;;
78732;SDS011;68056;52.530;5.454;2023-07-13T14:37:39;3.83;;;1.80;;
78732;SDS011;68056;52.530;5.454;2023-07-13T14:40:16;2.88;;;1.40;;
78732;SDS011;68056;52.530;5.454;2023-07-13T14:42:44;3.90;;;1.73;;
78732;SDS011;68056;52.530;5.454;2023-07-13T14:45:17;3.47;;;1.67;;
78732;SDS011;68056;52.530;5.454;2023-07-13T14:47:44;3.15;;;1.75;;
78732;SDS011;68056;52.530;5.454;2023-07-13T14:50:18;5.05;;;1.92;;
78732;SDS011;68056;52.530;5.454;2023-07-13T14:52:46;4.53;;;1.73;;
78732;SDS011;68056;52.530;5.454;2023-07-13T14:57:39;3.08;;;1.60;;
78732;SDS011;68056;52.530;5.454;2023-07-13T15:00:14;4.93;;;1.75;;
78732;SDS011;68056;52.530;5.454;2023-07-13T15:02:42;3.50;;;1.95;;
78732;SDS011;68056;52.530;5.454;2023-07-13T15:05:21;4.63;;;1.27;;
78732;SDS011;68056;52.530;5.454;2023-07-13T15:07:49;4.05;;;1.75;;
78732;SDS011;68056;52.530;5.454;2023-07-13T15:10:16;4.72;;;1.73;;
78732;SDS011;68056;52.530;5.454;2023-07-13T15:12:43;4.70;;;1.85;;
78732;SDS011;68056;52.530;5.454;2023-07-13T15:15:10;2.50;;;1.70;;
78732;SDS011;68056;52.530;5.454;2023-07-13T15:17:37;3.45;;;1.40;;
78732;SDS011;68056;52.530;5.454;2023-07-13T15:20:06;4.93;;;1.60;;
78732;SDS011;68056;52.530;5.454;2023-07-13T15:22:41;2.53;;;1.50;;
78732;SDS011;68056;52.530;5.454;2023-07-13T15:25:22;3.17;;;1.55;;
78732;SDS011;68056;52.530;5.454;2023-07-13T15:27:49;3.30;;;1.58;;
78732;SDS011;68056;52.530;5.454;2023-07-13T15:30:16;4.70;;;2.20;;
78732;SDS011;68056;52.530;5.454;2023-07-13T15:32:42;3.60;;;1.52;;
78732;SDS011;68056;52.530;5.454;2023-07-13T15:35:22;3.00;;;1.77;;
78732;SDS011;68056;52.530;5.454;2023-07-13T15:37:50;2.97;;;1.20;;
78732;SDS011;68056;52.530;5.454;2023-07-13T15:40:16;2.97;;;1.55;;
78732;SDS011;68056;52.530;5.454;2023-07-13T15:42:44;3.97;;;1.42;;
78732;SDS011;68056;52.530;5.454;2023-07-13T15:45:18;2.53;;;1.58;;
78732;SDS011;68056;52.530;5.454;2023-07-13T15:47:49;2.90;;;1.80;;
78732;SDS011;68056;52.530;5.454;2023-07-13T15:50:23;4.15;;;1.83;;
78732;SDS011;68056;52.530;5.454;2023-07-13T15:52:51;3.20;;;1.60;;
78732;SDS011;68056;52.530;5.454;2023-07-13T15:55:18;2.90;;;1.40;;
78732;SDS011;68056;52.530;5.454;2023-07-13T15:57:49;3.00;;;1.25;;
78732;SDS011;68056;52.530;5.454;2023-07-13T16:00:24;3.13;;;1.33;;
78732;SDS011;68056;52.530;5.454;2023-07-13T16:02:51;4.45;;;1.60;;